Time;durP1;ratioP1;P1;durP2;ratioP2;P2;SDS_P1;SDS_P2;PMS_P1;PMS_P2;Temp;Humidity;BMP_temperature;BMP_pressure;BME280_temperature;BME280_humidity;BME280_pressure;Samples;Min_cycle;Max_cycle;Signal;HPM_P1;HPM_P2
2023/08/25 10:24:38;;;;;;;4.60;2.33;;;;;;;19.27;94.83;96248.06;2084135;28;20926;-70
2023/08/25 10:26:44;;;;;;;4.93;2.83;;;;;;;19.39;95.38;96251.47;2084539;28;20554;-72
2023/08/25 10:28:57;;;;;;;6.32;3.25;;;;;;;19.47;96.12;96267.50;2107721;27;20614;-71
2023/08/25 11:16:55;;;;;;;9.82;3.67;;;;;;;20.14;94.90;96256.44;2082305;28;20575;-72
2023/08/25 11:17:57;;;;;;;6.00;3.00;;;;;;;20.23;93.38;96263.56;2077856;28;20763;-72
2023/08/25 11:18:58;;;;;;;5.47;2.85;;;;;;;20.32;92.93;96265.38;2077748;28;20514;-72
2023/08/25 11:20:00;;;;;;;7.30;4.32;;;;;;;20.39;91.12;96277.13;2081740;28;20287;-74
2023/08/25 11:21:02;;;;;;;5.32;2.45;;;;;;;20.52;90.42;96273.34;2076379;28;20201;-72
2023/08/25 11:22:09;;;;;;;12.60;3.00;;;;;;;20.63;90.39;96270.56;2075176;28;20574;-71
2023/08/25 11:23:11;;;;;;;3.97;2.53;;;;;;;20.68;88.71;96273.63;2079409;28;20435;-72
2023/08/25 11:24:24;;;;;;;4.82;2.67;;;;;;;20.70;88.12;96263.72;2081153;28;20193;-72
2023/08/25 11:50:29;;;;;;;13.82;2.45;;;;;;;21.11;87.40;96263.53;2109002;27;21032;-67
2023/08/25 11:51:30;;;;;;;5.82;3.50;;;;;;;21.15;86.59;96250.81;2109581;28;20190;-67
2023/08/25 11:52:32;;;;;;;5.57;2.60;;;;;;;21.24;86.64;96262.38;2100723;28;20219;-68
2023/08/25 11:53:34;;;;;;;6.45;3.13;;;;;;;21.30;85.48;96261.81;2103325;28;20206;-67
2023/08/25 11:54:49;;;;;;;3.97;2.75;;;;;;;21.34;84.01;96250.75;2100202;28;20219;-67
2023/08/25 11:56:04;;;;;;;7.53;2.92;;;;;;;21.36;84.96;96253.25;2100768;28;20195;-67
2023/08/25 11:57:05;;;;;;;6.07;2.67;;;;;;;21.34;84.70;96255.22;2093644;28;20729;-67
2023/08/25 12:31:38;;;;;;;8.52;3.50;;;;;;;21.30;84.24;96111.28;2093731;27;20559;-65
2023/08/25 12:32:40;;;;;;;4.20;3.00;;;;;;;21.36;83.18;96089.44;2079182;28;20197;-65
2023/08/25 12:33:41;;;;;;;5.72;3.00;;;;;;;21.39;84.26;96092.81;2079371;28;20193;-65
2023/08/25 12:34:43;;;;;;;5.65;3.45;;;;;;;21.40;83.15;96094.47;2079886;28;20264;-66
2023/08/25 12:35:48;;;;;;;11.95;3.53;;;;;;;21.52;83.18;96125.97;2081017;28;20200;-65
2023/08/25 12:36:49;;;;;;;6.25;3.30;;;;;;;21.59;83.38;96144.03;2078989;28;20786;-65
2023/08/25 12:37:51;;;;;;;7.90;3.30;;;;;;;21.65;81.75;96149.56;2079564;28;20208;-65
2023/08/25 12:38:53;;;;;;;4.97;3.20;;;;;;;21.69;82.66;96152.75;2079259;28;20723;-67
2023/08/25 12:39:55;;;;;;;4.85;3.20;;;;;;;21.80;82.32;96149.03;2080617;28;20235;-67
2023/08/25 12:40:57;;;;;;;6.72;3.38;;;;;;;21.88;81.83;96158.91;2078253;28;20197;-67
2023/08/25 12:41:58;;;;;;;7.97;3.20;;;;;;;22.00;81.13;96147.06;2079900;28;20221;-68
2023/08/25 12:43:00;;;;;;;4.50;2.70;;;;;;;22.08;81.61;96147.16;2071580;28;20248;-67
2023/08/25 12:44:02;;;;;;;9.82;3.33;;;;;;;22.16;81.30;96155.19;2070963;28;20332;-67
2023/08/25 12:45:04;;;;;;;10.80;4.13;;;;;;;22.20;80.10;96161.03;2071111;28;20206;-67
2023/08/25 12:46:05;;;;;;;5.88;3.15;;;;;;;22.34;80.35;96164.97;2071702;28;20225;-67
2023/08/25 12:47:07;;;;;;;10.57;3.05;;;;;;;22.39;80.22;96172.53;2070366;28;20228;-67
2023/08/25 12:48:08;;;;;;;7.00;3.55;;;;;;;22.43;80.10;96179.22;2072149;28;20201;-67
2023/08/25 12:49:10;;;;;;;7.93;3.10;;;;;;;22.42;79.50;96181.03;2071137;28;20194;-67
2023/08/25 12:50:11;;;;;;;5.75;3.50;;;;;;;22.46;80.03;96179.75;2072349;28;20193;-71
2023/08/25 12:51:15;;;;;;;7.30;3.75;;;;;;;22.47;78.97;96183.22;2070676;28;20653;-72
2023/08/25 12:52:17;;;;;;;4.05;2.60;;;;;;;22.46;79.63;96192.19;2071245;28;20236;-72
2023/08/25 12:53:19;;;;;;;4.50;2.88;;;;;;;22.48;79.32;96192.88;2071700;28;20243;-73
2023/08/25 12:54:21;;;;;;;7.15;3.35;;;;;;;22.52;79.89;96175.63;2070728;28;20391;-73
2023/08/25 12:55:22;;;;;;;10.02;3.67;;;;;;;22.51;79.45;96173.94;2070765;28;20711;-72
2023/08/25 12:56:25;;;;;;;5.65;3.00;;;;;;;22.57;79.24;96169.84;2070619;28;20204;-72
2023/08/25 12:57:26;;;;;;;5.25;3.10;;;;;;;22.55;79.52;96172.66;2070345;28;20221;-72
2023/08/25 12:58:28;;;;;;;9.63;3.60;;;;;;;22.56;79.46;96163.69;2070914;28;20224;-73
2023/08/25 12:59:30;;;;;;;8.77;3.40;;;;;;;22.55;79.24;96162.03;2074543;28;20194;-72
2023/08/25 13:00:31;;;;;;;5.30;2.95;;;;;;;22.58;78.32;96164.38;2070579;28;20713;-73
2023/08/25 13:01:33;;;;;;;6.47;2.67;;;;;;;22.59;78.88;96162.53;2070655;28;20194;-72
2023/08/25 13:02:34;;;;;;;6.70;3.30;;;;;;;22.55;78.40;96150.53;2070311;28;20221;-73
2023/08/25 13:03:36;;;;;;;8.15;3.42;;;;;;;22.61;78.82;96153.44;2070002;28;20205;-71
2023/08/25 13:04:37;;;;;;;7.90;3.45;;;;;;;22.62;78.95;96160.41;2070816;28;20705;-72
2023/08/25 13:05:40;;;;;;;5.80;3.10;;;;;;;22.59;78.73;96176.69;2071106;28;20195;-71
2023/08/25 13:06:41;;;;;;;10.00;2.95;;;;;;;22.61;78.30;96156.09;2070638;28;20281;-73
2023/08/25 13:07:43;;;;;;;5.05;2.90;;;;;;;22.61;79.09;96165.88;2072153;28;20201;-72
2023/08/25 13:08:44;;;;;;;11.02;3.40;;;;;;;22.63;78.93;96158.59;2070662;28;20244;-72
2023/08/25 13:09:49;;;;;;;8.20;4.10;;;;;;;22.57;79.00;96161.88;2070380;28;20676;-72
2023/08/25 13:10:51;;;;;;;7.50;3.42;;;;;;;22.64;79.55;96166.41;2070658;28;20198;-72
2023/08/25 13:11:52;;;;;;;15.43;4.50;;;;;;;22.70;79.02;96166.78;2070265;28;20240;-72
2023/08/25 13:12:54;;;;;;;7.97;2.90;;;;;;;22.75;78.68;96175.94;2071056;28;20747;-71
2023/08/25 13:13:56;;;;;;;8.40;3.78;;;;;;;22.78;78.69;96178.31;2070671;28;20218;-72
2023/08/25 13:14:58;;;;;;;9.60;3.40;;;;;;;22.77;78.51;96183.78;2071359;28;20194;-71
2023/08/25 13:16:00;;;;;;;6.93;3.75;;;;;;;22.84;78.29;96176.84;2071727;28;20205;-72
2023/08/25 13:17:02;;;;;;;6.15;3.25;;;;;;;22.91;78.51;96182.38;2070901;28;20265;-73
2023/08/25 13:18:04;;;;;;;14.27;4.20;;;;;;;22.97;78.06;96181.75;2070806;28;20201;-72
2023/08/25 13:19:05;;;;;;;6.90;3.35;;;;;;;23.02;77.45;96171.47;2070790;28;20263;-71
2023/08/25 13:20:07;;;;;;;4.28;3.20;;;;;;;23.10;76.45;96179.50;2070469;28;20284;-72
2023/08/25 13:21:10;;;;;;;5.53;2.92;;;;;;;23.17;75.84;96187.72;2070518;28;20288;-72
2023/08/25 13:22:12;;;;;;;6.47;3.03;;;;;;;23.30;75.44;96197.94;2071661;28;20710;-73
2023/08/25 13:23:14;;;;;;;11.82;3.53;;;;;;;23.37;75.36;96182.16;2070675;28;20291;-71
2023/08/25 13:24:34;;;;;;;8.02;2.80;;;;;;;23.54;74.19;96191.91;2071950;28;20205;-72
2023/08/25 13:25:36;;;;;;;11.27;3.67;;;;;;;23.63;74.10;96198.09;2071530;28;20545;-72
2023/08/25 13:26:37;;;;;;;9.00;3.70;;;;;;;23.75;74.31;96199.44;2070493;28;20202;-72
2023/08/25 13:27:40;;;;;;;9.70;3.60;;;;;;;23.91;73.45;96193.38;2070607;28;20209;-72
2023/08/25 13:28:41;;;;;;;10.77;3.60;;;;;;;23.97;72.92;96205.19;2070556;28;20210;-73
2023/08/25 13:29:43;;;;;;;7.80;3.22;;;;;;;24.02;72.84;96197.53;2070486;28;20550;-72
2023/08/25 13:30:44;;;;;;;10.77;3.00;;;;;;;24.06;72.98;96200.72;2069753;28;20205;-71
2023/08/25 13:31:46;;;;;;;15.90;3.22;;;;;;;23.99;72.98;96194.38;2069179;28;20549;-73
2023/08/25 13:32:49;;;;;;;8.85;2.65;;;;;;;23.98;73.26;96198.88;2071153;28;20817;-73
2023/08/25 13:33:51;;;;;;;7.90;3.30;;;;;;;24.02;73.79;96200.19;2070338;28;20220;-72
2023/08/25 13:34:52;;;;;;;5.97;3.70;;;;;;;24.01;74.01;96219.88;2070573;28;20251;-72
2023/08/25 13:35:55;;;;;;;13.43;3.05;;;;;;;24.10;73.86;96218.91;2070406;28;20336;-72
2023/08/25 13:36:57;;;;;;;11.25;3.15;;;;;;;23.99;73.58;96226.38;2070090;28;20232;-72
2023/08/25 13:37:58;;;;;;;6.35;3.28;;;;;;;23.95;72.75;96224.03;2069406;28;20198;-72
2023/08/25 13:39:00;;;;;;;6.60;3.17;;;;;;;23.94;73.66;96230.34;2070453;28;20229;-72
2023/08/25 13:40:04;;;;;;;6.30;3.63;;;;;;;24.07;73.70;96227.22;2070792;28;20767;-72
2023/08/25 13:41:05;;;;;;;5.13;2.70;;;;;;;23.98;72.05;96216.72;2070696;28;20236;-72
2023/08/25 13:42:07;;;;;;;5.00;2.85;;;;;;;23.95;72.28;96225.88;2069658;28;20574;-73
2023/08/25 13:43:10;;;;;;;6.53;3.47;;;;;;;24.03;72.49;96217.06;2064415;28;20210;-73
2023/08/25 13:44:12;;;;;;;6.45;3.10;;;;;;;24.04;72.42;96221.41;2064292;28;20205;-72
2023/08/25 13:45:13;;;;;;;7.78;3.38;;;;;;;24.07;72.03;96224.53;2065750;28;20213;-72
2023/08/25 13:46:16;;;;;;;6.95;3.53;;;;;;;24.02;71.67;96236.72;2066512;28;20206;-72
2023/08/25 13:47:17;;;;;;;5.95;3.67;;;;;;;24.10;72.46;96223.41;2065062;28;20812;-72
2023/08/25 13:48:19;;;;;;;9.77;3.90;;;;;;;24.16;72.37;96235.25;2065999;28;20230;-72
2023/08/25 13:49:20;;;;;;;4.38;3.47;;;;;;;24.12;71.96;96234.72;2081816;28;20205;-71
2023/08/25 13:50:21;;;;;;;7.07;2.95;;;;;;;24.16;71.83;96235.25;2081218;28;20200;-72
2023/08/25 13:51:23;;;;;;;9.38;3.28;;;;;;;24.11;71.52;96235.72;2065878;28;20596;-72
2023/08/25 13:52:25;;;;;;;6.43;3.40;;;;;;;24.01;71.98;96233.22;2065276;28;20795;-72
2023/08/25 13:53:26;;;;;;;5.38;3.00;;;;;;;24.05;71.79;96229.22;2064793;28;20210;-73
2023/08/25 13:54:28;;;;;;;8.55;3.33;;;;;;;24.16;72.13;96229.91;2065069;28;20199;-72
2023/08/25 13:55:30;;;;;;;8.35;3.22;;;;;;;24.18;72.32;96227.94;2065030;28;20582;-72
2023/08/25 13:56:32;;;;;;;7.97;3.33;;;;;;;24.16;71.84;96222.72;2064527;28;20202;-72
2023/08/25 13:57:37;;;;;;;9.70;2.92;;;;;;;24.13;71.89;96210.56;2064916;28;20282;-72
2023/08/25 13:58:39;;;;;;;4.38;2.65;;;;;;;24.21;72.05;96214.25;2065273;28;20317;-72
2023/08/25 13:59:40;;;;;;;7.07;3.88;;;;;;;24.26;71.42;96212.78;2066327;28;20207;-71
2023/08/25 14:00:42;;;;;;;5.88;3.20;;;;;;;24.27;71.37;96219.75;2067085;28;20199;-72
2023/08/25 14:01:43;;;;;;;8.82;3.33;;;;;;;24.39;71.03;96219.44;2067062;28;20242;-73
2023/08/25 14:02:46;;;;;;;7.10;3.30;;;;;;;24.65;71.47;96221.16;2065285;28;20197;-72
2023/08/25 14:03:48;;;;;;;6.20;3.40;;;;;;;24.77;70.79;96217.13;2063891;28;20186;-72
2023/08/25 14:04:50;;;;;;;4.72;3.25;;;;;;;24.93;70.49;96222.44;2064910;28;20199;-72
2023/08/25 14:05:51;;;;;;;7.70;3.60;;;;;;;25.03;69.93;96216.94;2065783;28;20311;-71
2023/08/25 14:06:53;;;;;;;6.75;2.88;;;;;;;25.49;69.33;96220.88;2064671;28;20561;-72
2023/08/25 14:07:54;;;;;;;5.22;3.00;;;;;;;25.74;68.37;96218.94;2064796;28;20202;-71
2023/08/25 14:08:56;;;;;;;8.85;3.15;;;;;;;25.92;66.94;96221.34;2064888;28;20665;-71
2023/08/25 14:09:58;;;;;;;6.97;3.80;;;;;;;25.98;66.87;96214.44;2064694;28;20218;-72
2023/08/25 14:10:59;;;;;;;6.85;3.33;;;;;;;26.23;67.21;96218.69;2064909;28;20229;-71
2023/08/25 14:12:01;;;;;;;7.00;3.13;;;;;;;26.16;66.78;96216.91;2064290;28;20230;-71
2023/08/25 14:13:03;;;;;;;5.45;2.90;;;;;;;26.26;67.78;96224.69;2065445;28;20822;-72
2023/08/25 14:14:04;;;;;;;7.85;3.22;;;;;;;26.43;67.92;96228.09;2064965;28;20205;-72
2023/08/25 14:15:07;;;;;;;4.20;3.22;;;;;;;26.07;66.74;96232.16;2065717;28;20221;-72
2023/08/25 14:16:09;;;;;;;7.60;2.72;;;;;;;25.98;67.83;96234.03;2064782;28;20865;-71
2023/08/25 14:17:10;;;;;;;6.75;3.22;;;;;;;25.94;68.51;96223.84;2063262;28;20296;-71
2023/08/25 14:18:12;;;;;;;3.67;2.40;;;;;;;26.28;67.92;96222.66;2065084;28;20540;-70
2023/08/25 14:19:13;;;;;;;5.90;3.38;;;;;;;26.61;67.80;96217.91;2065007;28;20190;-71
2023/08/25 14:20:15;;;;;;;7.20;2.60;;;;;;;26.60;68.11;96218.94;2069629;28;20236;-73
2023/08/25 14:21:16;;;;;;;9.85;5.05;;;;;;;26.32;68.58;96210.59;2066973;28;20202;-72
2023/08/25 14:22:18;;;;;;;4.60;3.47;;;;;;;26.47;69.09;96206.13;2067917;28;20588;-72
2023/08/25 14:23:19;;;;;;;8.20;5.75;;;;;;;26.36;68.97;96210.06;2065369;28;20194;-72
2023/08/25 14:24:21;;;;;;;7.70;2.70;;;;;;;26.39;69.46;96214.22;2065974;28;20198;-74
2023/08/25 14:25:23;;;;;;;7.85;3.03;;;;;;;26.40;69.58;96206.03;2065792;28;20198;-73
2023/08/25 14:26:24;;;;;;;7.40;3.15;;;;;;;26.52;69.05;96206.41;2065134;28;20788;-73
2023/08/25 14:27:26;;;;;;;3.72;2.55;;;;;;;26.52;69.14;96200.25;2064842;28;20474;-74
2023/08/25 14:28:27;;;;;;;6.47;3.17;;;;;;;26.54;69.16;96206.25;2065281;28;20195;-73
2023/08/25 14:29:29;;;;;;;5.22;2.88;;;;;;;26.59;68.94;96197.69;2067098;28;20198;-72
2023/08/25 14:30:32;;;;;;;6.35;2.75;;;;;;;26.34;69.96;96203.22;2064792;28;20256;-70
2023/08/25 14:31:34;;;;;;;5.03;2.50;;;;;;;26.45;69.44;96202.81;2065470;28;20226;-70
2023/08/25 14:32:35;;;;;;;4.10;2.50;;;;;;;26.37;69.04;96192.16;2067001;28;20723;-72
2023/08/25 14:33:37;;;;;;;6.80;2.95;;;;;;;26.48;69.63;96204.31;2066341;28;20289;-72
2023/08/25 14:34:39;;;;;;;6.82;2.65;;;;;;;26.54;69.89;96203.59;2066756;28;20201;-72
2023/08/25 14:35:40;;;;;;;4.50;3.20;;;;;;;26.65;69.88;96203.16;2068088;28;20289;-72
2023/08/25 14:36:42;;;;;;;4.47;3.15;;;;;;;26.59;70.65;96203.88;2064250;28;20626;-72
2023/08/25 14:37:43;;;;;;;6.90;3.22;;;;;;;26.99;68.83;96196.50;2065180;28;20605;-72
2023/08/25 14:38:45;;;;;;;12.30;2.58;;;;;;;27.45;67.35;96198.25;2065471;28;20226;-72
2023/08/25 14:39:47;;;;;;;10.15;3.38;;;;;;;27.47;67.50;96200.72;2064383;28;20277;-71
2023/08/25 14:40:50;;;;;;;6.87;3.00;;;;;;;27.58;65.28;96194.91;2066141;28;20310;-71
2023/08/25 14:41:55;;;;;;;7.23;2.80;;;;;;;27.67;66.38;96196.44;2065873;28;20424;-71
2023/08/25 14:42:58;;;;;;;11.27;3.60;;;;;;;27.85;65.57;96193.34;2064903;28;20479;-71
2023/08/25 14:43:59;;;;;;;5.37;2.97;;;;;;;27.82;65.60;96201.78;2065356;28;20908;-72
2023/08/25 14:45:02;;;;;;;3.70;2.37;;;;;;;28.41;63.94;96196.47;2064643;28;20428;-72
2023/08/25 14:46:03;;;;;;;10.73;3.27;;;;;;;29.07;62.79;96203.44;2081605;28;20430;-71
2023/08/25 14:47:07;;;;;;;9.63;3.17;;;;;;;29.63;60.92;96202.56;2079341;28;20457;-71
2023/08/25 14:48:08;;;;;;;5.70;2.80;;;;;;;30.04;59.98;96200.88;2065110;28;20522;-72
2023/08/25 14:49:11;;;;;;;6.93;2.70;;;;;;;30.28;60.19;96197.66;2065516;28;20428;-72
2023/08/25 14:50:12;;;;;;;6.67;2.40;;;;;;;29.78;59.91;96199.72;2066419;28;20962;-72
2023/08/25 14:51:15;;;;;;;4.93;2.43;;;;;;;30.32;59.45;96198.03;2065631;28;20435;-70
2023/08/25 14:52:17;;;;;;;3.00;2.53;;;;;;;30.56;58.85;96203.91;2081088;28;20485;-72
2023/08/25 14:53:18;;;;;;;9.40;2.60;;;;;;;30.79;58.38;96203.50;2080692;28;20903;-70
2023/08/25 14:54:20;;;;;;;7.23;2.70;;;;;;;30.10;61.01;96198.19;2064223;28;20467;-71
2023/08/25 14:55:22;;;;;;;10.67;2.97;;;;;;;30.70;59.72;96200.22;2080342;28;20484;-71
2023/08/25 14:56:23;;;;;;;5.87;2.70;;;;;;;30.52;59.16;96195.41;2081528;28;20493;-71
2023/08/25 14:57:25;;;;;;;3.10;1.90;;;;;;;30.82;56.63;96196.88;2065004;28;20582;-71
2023/08/25 14:58:27;;;;;;;4.60;2.63;;;;;;;30.05;58.54;96197.97;2065493;28;20431;-71
2023/08/25 14:59:29;;;;;;;6.10;2.60;;;;;;;30.59;58.21;96193.56;2066593;28;20468;-70
2023/08/25 15:00:30;;;;;;;4.93;2.70;;;;;;;31.05;57.24;96193.78;2064823;28;20507;-71
2023/08/25 15:01:32;;;;;;;3.90;2.17;;;;;;;30.90;57.12;96194.00;2063648;28;20458;-72
2023/08/25 15:02:34;;;;;;;6.17;2.80;;;;;;;31.08;57.37;96190.69;2063988;28;20815;-71
2023/08/25 15:03:36;;;;;;;5.33;2.20;;;;;;;31.29;56.79;96199.56;2064762;28;20575;-72
2023/08/25 15:04:38;;;;;;;4.40;2.20;;;;;;;31.36;56.72;96195.84;2064844;28;20419;-71
2023/08/25 15:05:40;;;;;;;5.27;2.50;;;;;;;31.49;56.38;96189.56;2065175;28;20424;-72
2023/08/25 15:06:41;;;;;;;11.43;2.97;;;;;;;31.42;55.27;96194.16;2064289;28;20470;-72
2023/08/25 15:07:43;;;;;;;6.83;3.00;;;;;;;31.51;55.46;96194.75;2065060;28;20482;-72
2023/08/25 15:08:44;;;;;;;5.73;3.00;;;;;;;31.33;56.56;96188.16;2064803;28;20424;-72
2023/08/25 15:09:46;;;;;;;4.77;2.63;;;;;;;31.21;56.87;96189.81;2065304;28;21055;-72
2023/08/25 15:10:47;;;;;;;4.53;2.70;;;;;;;31.36;56.18;96192.28;2066289;28;20428;-71
2023/08/25 15:11:49;;;;;;;4.47;2.40;;;;;;;31.42;56.57;96196.84;2064095;28;20490;-72
2023/08/25 15:12:50;;;;;;;8.73;2.67;;;;;;;31.59;56.37;96187.25;2063447;28;20460;-71
2023/08/25 15:13:51;;;;;;;4.03;2.33;;;;;;;31.38;54.96;96195.63;2065625;28;20826;-71
2023/08/25 15:14:53;;;;;;;4.23;2.47;;;;;;;29.86;57.86;96187.97;2064873;28;20455;-73
2023/08/25 15:15:54;;;;;;;12.20;2.97;;;;;;;29.58;58.15;96183.50;2064130;28;20432;-72
2023/08/25 15:16:56;;;;;;;5.00;2.47;;;;;;;30.01;57.40;96188.66;2064532;28;20456;-72
2023/08/25 15:17:57;;;;;;;7.13;2.93;;;;;;;30.29;56.21;96185.00;2064845;28;20432;-71
2023/08/25 15:18:59;;;;;;;3.10;2.17;;;;;;;30.10;57.02;96187.44;2064860;28;20432;-71
2023/08/25 15:20:02;;;;;;;4.00;2.50;;;;;;;29.00;59.07;96182.72;2064770;28;20459;-72
2023/08/25 15:21:04;;;;;;;9.13;2.53;;;;;;;28.84;60.29;96183.03;2064475;28;20842;-71
2023/08/25 15:22:06;;;;;;;5.00;2.57;;;;;;;28.43;60.69;96175.59;2063913;28;20452;-71
2023/08/25 15:23:07;;;;;;;5.57;2.90;;;;;;;29.27;59.59;96172.16;2063492;28;20437;-71
2023/08/25 15:24:09;;;;;;;4.50;2.80;;;;;;;29.72;58.28;96161.00;2065640;28;20427;-71
2023/08/25 15:25:11;;;;;;;4.17;2.50;;;;;;;29.95;58.74;96167.94;2065000;28;20516;-70
2023/08/25 15:26:13;;;;;;;3.83;2.37;;;;;;;30.39;58.12;96163.88;2064011;28;20436;-71
2023/08/25 15:27:14;;;;;;;5.30;2.60;;;;;;;31.06;56.54;96157.72;2064232;28;20456;-71
2023/08/25 15:28:16;;;;;;;6.93;2.87;;;;;;;31.27;56.03;96157.47;2064478;28;20513;-71
2023/08/25 15:29:17;;;;;;;5.30;2.33;;;;;;;31.37;55.80;96154.31;2064940;28;20776;-71
2023/08/25 15:30:20;;;;;;;3.60;2.60;;;;;;;31.07;57.72;96153.97;2066388;28;20466;-71
2023/08/25 15:31:22;;;;;;;5.07;2.40;;;;;;;30.94;58.57;96149.41;2064670;28;21311;-71
2023/08/25 15:32:23;;;;;;;6.60;2.40;;;;;;;30.35;60.59;96154.56;2063524;28;20464;-71
2023/08/25 15:33:25;;;;;;;5.10;2.50;;;;;;;30.06;61.17;96151.19;2064586;28;20483;-71
2023/08/25 15:34:26;;;;;;;4.60;2.40;;;;;;;29.37;61.47;96152.16;2064123;28;20435;-71
2023/08/25 15:35:28;;;;;;;11.30;3.67;;;;;;;29.34;62.78;96149.88;2065632;28;20432;-70
2023/08/25 15:36:29;;;;;;;5.07;2.20;;;;;;;29.34;63.33;96153.38;2063306;28;20439;-70
2023/08/25 15:37:31;;;;;;;3.40;2.33;;;;;;;29.19;63.84;96158.84;2063469;28;20448;-71
2023/08/25 15:38:33;;;;;;;4.43;2.80;;;;;;;29.07;63.92;96158.59;2064850;28;20474;-70
2023/08/25 15:39:34;;;;;;;7.00;2.70;;;;;;;29.18;63.57;96149.16;2063758;28;20547;-70
2023/08/25 15:40:36;;;;;;;7.37;2.50;;;;;;;28.49;65.05;96148.84;2066101;28;20919;-70
2023/08/25 15:41:37;;;;;;;4.43;2.80;;;;;;;28.80;64.59;96149.53;2064896;28;20787;-70
2023/08/25 15:42:39;;;;;;;5.60;2.47;;;;;;;29.38;62.86;96143.91;2064268;28;20808;-70
2023/08/25 15:43:40;;;;;;;8.40;2.43;;;;;;;29.20;62.94;96151.63;2063884;28;20792;-71
2023/08/25 15:44:42;;;;;;;4.07;2.60;;;;;;;29.34;62.75;96147.19;2063718;28;20424;-70
2023/08/25 15:45:48;;;;;;;5.50;2.40;;;;;;;29.99;61.82;96144.16;2063996;28;20420;-71
2023/08/25 15:46:49;;;;;;;9.30;2.77;;;;;;;30.50;60.29;96148.19;2063623;28;20914;-71
2023/08/25 15:47:51;;;;;;;8.33;2.80;;;;;;;30.38;60.15;96150.63;2064052;28;20491;-71
2023/08/25 15:48:52;;;;;;;6.00;2.40;;;;;;;30.73;59.95;96145.09;2064814;28;20831;-70
2023/08/25 15:49:54;;;;;;;5.63;2.47;;;;;;;31.20;58.63;96143.16;2064216;28;20439;-71
2023/08/25 15:50:55;;;;;;;4.10;2.33;;;;;;;31.27;58.61;96149.38;2066777;28;20431;-71
2023/08/25 15:51:57;;;;;;;6.00;2.77;;;;;;;30.73;59.21;96142.41;2064762;28;20471;-71
2023/08/25 15:52:58;;;;;;;4.30;2.60;;;;;;;30.86;59.10;96146.94;2064310;28;20602;-71
2023/08/25 15:54:00;;;;;;;4.43;2.43;;;;;;;30.21;60.06;96151.03;2065932;28;20486;-70
2023/08/25 15:55:02;;;;;;;4.73;2.60;;;;;;;29.83;60.52;96148.84;2064141;28;20439;-71
2023/08/25 15:56:03;;;;;;;8.40;2.20;;;;;;;30.17;59.56;96148.94;2063827;28;20431;-71
2023/08/25 15:57:05;;;;;;;10.50;2.73;;;;;;;30.53;59.19;96147.78;2063723;28;20467;-71
2023/08/25 15:58:08;;;;;;;9.60;3.70;;;;;;;30.56;58.85;96128.50;2066567;28;20439;-71
2023/08/25 15:59:09;;;;;;;4.10;2.10;;;;;;;30.46;59.61;96132.41;2064139;28;20511;-71
2023/08/25 16:00:11;;;;;;;6.17;2.43;;;;;;;30.69;58.96;96133.91;2064964;28;20543;-71
2023/08/25 16:01:13;;;;;;;5.90;2.40;;;;;;;31.13;58.02;96136.16;2063678;28;20446;-71
2023/08/25 16:02:16;;;;;;;6.73;2.50;;;;;;;30.96;57.68;96131.16;2063386;28;20463;-72
2023/08/25 16:03:17;;;;;;;4.23;2.40;;;;;;;30.35;58.67;96127.66;2063921;28;20455;-72
2023/08/25 16:04:19;;;;;;;4.10;2.13;;;;;;;30.58;58.03;96123.75;2064604;28;20436;-72
2023/08/25 16:05:20;;;;;;;3.50;2.70;;;;;;;30.73;57.76;96123.53;2063324;28;20661;-71
2023/08/25 16:06:22;;;;;;;9.53;6.20;;;;;;;30.89;57.97;96122.25;2067670;28;20478;-73
2023/08/25 16:07:23;;;;;;;16.47;13.03;;;;;;;30.92;57.39;96121.84;2066101;28;20451;-68
2023/08/25 16:08:26;;;;;;;10.80;6.90;;;;;;;30.87;56.88;96119.78;2062536;28;20428;-71
2023/08/25 16:09:28;;;;;;;5.80;2.70;;;;;;;30.48;57.67;96126.03;2066961;28;20830;-71
2023/08/25 16:10:29;;;;;;;12.07;7.30;;;;;;;30.23;58.88;96134.66;2064051;28;20424;-69
2023/08/25 16:11:31;;;;;;;8.60;3.60;;;;;;;30.73;58.19;96132.44;2065231;28;20530;-70
2023/08/25 16:12:32;;;;;;;6.77;3.17;;;;;;;30.36;57.62;96136.53;2063961;28;21151;-70
2023/08/25 16:13:35;;;;;;;3.93;2.43;;;;;;;30.45;58.15;96130.75;2064018;28;20464;-69
2023/08/25 16:14:36;;;;;;;5.30;2.67;;;;;;;29.85;59.45;96143.25;2063197;28;20489;-69
2023/08/25 16:15:41;;;;;;;4.27;2.40;;;;;;;29.89;59.69;96133.75;2064003;28;20420;-69
2023/08/25 16:16:42;;;;;;;2.70;2.30;;;;;;;30.30;59.08;96141.72;2063597;28;20433;-69
2023/08/25 16:17:44;;;;;;;4.33;2.60;;;;;;;30.44;59.36;96139.03;2065055;28;20456;-69
2023/08/25 16:18:46;;;;;;;11.20;2.00;;;;;;;30.45;59.50;96143.41;2065721;28;20431;-69
2023/08/25 16:19:47;;;;;;;3.63;2.67;;;;;;;30.63;58.97;96137.41;2066787;28;20432;-69
2023/08/25 16:20:49;;;;;;;6.00;2.17;;;;;;;30.33;58.62;96137.78;2066133;28;20424;-70
2023/08/25 16:21:51;;;;;;;2.77;2.03;;;;;;;30.29;58.06;96136.53;2063340;28;20439;-69
2023/08/25 16:22:52;;;;;;;6.20;2.67;;;;;;;30.53;57.53;96139.69;2064752;28;20452;-69
2023/08/25 16:23:54;;;;;;;2.63;2.30;;;;;;;30.29;57.20;96140.06;2063864;28;20432;-70
2023/08/25 16:24:55;;;;;;;3.80;2.50;;;;;;;30.72;55.90;96143.44;2064433;28;21120;-69
2023/08/25 16:25:57;;;;;;;9.73;2.50;;;;;;;30.70;55.01;96126.63;2063696;28;20482;-69
2023/08/25 16:26:59;;;;;;;6.10;2.30;;;;;;;30.50;56.52;96135.56;2062965;28;20452;-69
2023/08/25 16:28:01;;;;;;;5.00;2.23;;;;;;;30.50;56.15;96134.72;2064484;28;20424;-69
2023/08/25 16:29:03;;;;;;;4.30;2.00;;;;;;;30.72;55.58;96138.03;2065260;28;20455;-70
2023/08/25 16:30:05;;;;;;;5.20;2.27;;;;;;;30.78;55.39;96146.09;2064993;28;20523;-69
2023/08/25 16:31:09;;;;;;;4.53;2.83;;;;;;;30.76;55.58;96139.28;2064141;28;21386;-69
2023/08/25 16:32:13;;;;;;;5.03;2.57;;;;;;;30.26;56.94;96142.34;2063251;28;20542;-68
2023/08/25 16:33:14;;;;;;;5.10;1.93;;;;;;;30.51;57.11;96133.69;2063820;28;20428;-69
2023/08/25 16:34:16;;;;;;;5.30;2.20;;;;;;;30.53;57.59;96137.81;2063965;28;20431;-69
2023/08/25 16:35:17;;;;;;;4.20;2.30;;;;;;;30.74;57.13;96135.94;2064040;28;20428;-69
2023/08/25 16:36:19;;;;;;;7.10;2.23;;;;;;;30.82;57.08;96137.59;2063864;28;20424;-69
2023/08/25 16:37:20;;;;;;;5.47;2.27;;;;;;;30.89;56.88;96135.72;2062876;28;20554;-69
2023/08/25 16:38:21;;;;;;;10.60;2.30;;;;;;;31.12;56.11;96143.38;2067911;28;20439;-69
2023/08/25 16:39:23;;;;;;;3.20;1.77;;;;;;;30.85;55.28;96134.50;2062094;28;20432;-69
2023/08/25 16:40:26;;;;;;;4.20;1.97;;;;;;;30.64;56.10;96136.38;2063794;28;20428;-70
2023/08/25 16:41:28;;;;;;;4.53;2.57;;;;;;;30.37;57.71;96135.50;2064022;28;20967;-69
2023/08/25 16:42:30;;;;;;;5.53;1.97;;;;;;;30.52;57.23;96136.16;2063475;28;20475;-69
2023/08/25 16:43:32;;;;;;;11.30;2.33;;;;;;;30.16;57.71;96134.66;2063672;28;20432;-70
2023/08/25 16:44:33;;;;;;;7.77;2.07;;;;;;;29.81;58.26;96140.13;2062974;28;20436;-69
2023/08/25 16:45:34;;;;;;;3.27;2.40;;;;;;;29.65;58.43;96135.97;2065372;28;20432;-66
2023/08/25 16:46:36;;;;;;;4.83;2.07;;;;;;;29.97;57.77;96133.59;2067274;28;20511;-66
2023/08/25 16:47:38;;;;;;;3.80;2.10;;;;;;;29.63;59.12;96119.19;2071683;28;20435;-67
2023/08/25 16:48:39;;;;;;;3.50;2.00;;;;;;;29.42;59.62;96126.34;2071924;28;20431;-68
2023/08/25 16:49:41;;;;;;;5.10;2.50;;;;;;;29.00;60.40;96125.44;2072309;28;20434;-67
2023/08/25 16:50:42;;;;;;;3.73;2.07;;;;;;;28.79;61.12;96124.50;2070346;28;20431;-66
2023/08/25 16:51:44;;;;;;;26.97;23.97;;;;;;;28.82;61.70;96115.22;2070775;28;20427;-67
2023/08/25 16:52:46;;;;;;;34.27;28.90;;;;;;;28.78;61.82;96117.47;2064767;28;20463;-67
2023/08/25 16:53:47;;;;;;;12.37;8.87;;;;;;;28.77;62.04;96123.88;2064419;28;20935;-67
2023/08/25 16:54:49;;;;;;;47.27;40.20;;;;;;;28.90;61.28;96122.28;2063468;28;20427;-68
2023/08/25 16:55:51;;;;;;;10.60;5.90;;;;;;;28.49;62.46;96129.19;2065618;28;20439;-67
2023/08/25 16:56:53;;;;;;;6.40;4.60;;;;;;;28.51;62.51;96137.91;2064784;28;20455;-67
2023/08/25 16:57:55;;;;;;;13.63;3.33;;;;;;;28.64;61.63;96129.13;2063839;28;20420;-66
2023/08/25 16:58:56;;;;;;;5.40;2.73;;;;;;;28.49;61.61;96130.03;2064432;28;20428;-66
2023/08/25 16:59:59;;;;;;;3.40;2.73;;;;;;;28.33;62.57;96133.81;2063517;28;20432;-67
2023/08/25 17:01:02;;;;;;;5.37;2.43;;;;;;;28.12;63.64;96123.91;2063284;28;20432;-66
2023/08/25 17:02:04;;;;;;;4.43;2.13;;;;;;;27.86;64.41;96122.59;2062576;28;20539;-66
2023/08/25 17:03:06;;;;;;;4.90;2.50;;;;;;;27.77;64.75;96123.75;2063666;28;20428;-66